sensor_id;sensor_type;location;lat;lon;timestamp;P1;durP1;ratioP1;P2;durP2;ratioP2
4186;SDS011;2107;52.306;10.484;2023-06-05T00:02:00;0.20;;;0.20;;
4186;SDS011;2107;52.306;10.484;2023-06-05T00:04:27;0.20;;;0.20;;
4186;SDS011;2107;52.306;10.484;2023-06-05T00:06:54;0.20;;;0.20;;
4186;SDS011;2107;52.306;10.484;2023-06-05T00:09:21;0.20;;;0.20;;
4186;SDS011;2107;52.306;10.484;2023-06-05T00:11:48;0.20;;;0.20;;
4186;SDS011;2107;52.306;10.484;2023-06-05T00:14:15;0.20;;;0.20;;
4186;SDS011;2107;52.306;10.484;2023-06-05T00:16:42;0.20;;;0.20;;
4186;SDS011;2107;52.306;10.484;2023-06-05T00:19:11;0.20;;;0.20;;
4186;SDS011;2107;52.306;10.484;2023-06-05T00:21:38;0.20;;;0.20;;
4186;SDS011;2107;52.306;10.484;2023-06-05T00:24:05;0.20;;;0.20;;
4186;SDS011;2107;52.306;10.484;2023-06-05T00:26:32;0.20;;;0.20;;
4186;SDS011;2107;52.306;10.484;2023-06-05T00:28:59;0.10;;;0.10;;
4186;SDS011;2107;52.306;10.484;2023-06-05T00:31:26;0.10;;;0.10;;
4186;SDS011;2107;52.306;10.484;2023-06-05T00:33:53;0.20;;;0.20;;
4186;SDS011;2107;52.306;10.484;2023-06-05T00:36:21;0.10;;;0.10;;
4186;SDS011;2107;52.306;10.484;2023-06-05T00:38:48;0.20;;;0.20;;
4186;SDS011;2107;52.306;10.484;2023-06-05T00:41:15;0.10;;;0.10;;
4186;SDS011;2107;52.306;10.484;2023-06-05T00:43:42;0.10;;;0.10;;
4186;SDS011;2107;52.306;10.484;2023-06-05T00:46:09;0.13;;;0.13;;
4186;SDS011;2107;52.306;10.484;2023-06-05T00:48:37;0.10;;;0.10;;
4186;SDS011;2107;52.306;10.484;2023-06-05T00:51:06;0.10;;;0.10;;
4186;SDS011;2107;52.306;10.484;2023-06-05T00:53:36;0.20;;;0.20;;
4186;SDS011;2107;52.306;10.484;2023-06-05T00:56:05;0.10;;;0.10;;
4186;SDS011;2107;52.306;10.484;2023-06-05T00:58:32;0.20;;;0.20;;
4186;SDS011;2107;52.306;10.484;2023-06-05T01:00:59;0.20;;;0.20;;
4186;SDS011;2107;52.306;10.484;2023-06-05T01:03:29;0.10;;;0.10;;
4186;SDS011;2107;52.306;10.484;2023-06-05T01:05:58;0.10;;;0.10;;
4186;SDS011;2107;52.306;10.484;2023-06-05T01:08:28;0.10;;;0.10;;
4186;SDS011;2107;52.306;10.484;2023-06-05T01:11:05;0.10;;;0.10;;
4186;SDS011;2107;52.306;10.484;2023-06-05T01:13:40;0.10;;;0.10;;
4186;SDS011;2107;52.306;10.484;2023-06-05T01:16:12;0.10;;;0.10;;
4186;SDS011;2107;52.306;10.484;2023-06-05T01:18:40;0.20;;;0.20;;
4186;SDS011;2107;52.306;10.484;2023-06-05T01:21:10;0.20;;;0.20;;
4186;SDS011;2107;52.306;10.484;2023-06-05T01:23:41;0.10;;;0.10;;
4186;SDS011;2107;52.306;10.484;2023-06-05T01:26:09;0.10;;;0.10;;
4186;SDS011;2107;52.306;10.484;2023-06-05T01:28:42;0.20;;;0.20;;
4186;SDS011;2107;52.306;10.484;2023-06-05T01:31:16;0.10;;;0.10;;
4186;SDS011;2107;52.306;10.484;2023-06-05T01:33:47;0.20;;;0.20;;
4186;SDS011;2107;52.306;10.484;2023-06-05T01:36:22;0.20;;;0.20;;
4186;SDS011;2107;52.306;10.484;2023-06-05T01:38:51;0.10;;;0.10;;
4186;SDS011;2107;52.306;10.484;2023-06-05T01:41:20;0.10;;;0.10;;
4186;SDS011;2107;52.306;10.484;2023-06-05T01:43:47;0.10;;;0.10;;
4186;SDS011;2107;52.306;10.484;2023-06-05T01:46:17;0.10;;;0.10;;
4186;SDS011;2107;52.306;10.484;2023-06-05T01:48:47;0.10;;;0.10;;
4186;SDS011;2107;52.306;10.484;2023-06-05T01:51:15;0.10;;;0.10;;
4186;SDS011;2107;52.306;10.484;2023-06-05T01:53:42;0.20;;;0.20;;
4186;SDS011;2107;52.306;10.484;2023-06-05T01:56:10;0.10;;;0.10;;
4186;SDS011;2107;52.306;10.484;2023-06-05T01:58:37;0.10;;;0.10;;
4186;SDS011;2107;52.306;10.484;2023-06-05T02:01:04;0.10;;;0.10;;
4186;SDS011;2107;52.306;10.484;2023-06-05T02:03:30;0.10;;;0.10;;
4186;SDS011;2107;52.306;10.484;2023-06-05T02:05:58;0.07;;;0.07;;
4186;SDS011;2107;52.306;10.484;2023-06-05T02:08:25;0.10;;;0.10;;
4186;SDS011;2107;52.306;10.484;2023-06-05T02:10:53;0.10;;;0.10;;
4186;SDS011;2107;52.306;10.484;2023-06-05T02:13:21;0.10;;;0.10;;
4186;SDS011;2107;52.306;10.484;2023-06-05T02:15:50;0.10;;;0.10;;
4186;SDS011;2107;52.306;10.484;2023-06-05T02:18:21;0.10;;;0.10;;
4186;SDS011;2107;52.306;10.484;2023-06-05T02:20:52;0.10;;;0.10;;
4186;SDS011;2107;52.306;10.484;2023-06-05T02:23:21;0.10;;;0.10;;
4186;SDS011;2107;52.306;10.484;2023-06-05T02:25:48;0.10;;;0.10;;
4186;SDS011;2107;52.306;10.484;2023-06-05T02:28:15;0.10;;;0.10;;
4186;SDS011;2107;52.306;10.484;2023-06-05T02:30:43;0.10;;;0.10;;
4186;SDS011;2107;52.306;10.484;2023-06-05T02:33:10;0.07;;;0.07;;
4186;SDS011;2107;52.306;10.484;2023-06-05T02:35:37;0.10;;;0.10;;
4186;SDS011;2107;52.306;10.484;2023-06-05T02:38:05;0.00;;;0.00;;
4186;SDS011;2107;52.306;10.484;2023-06-05T02:40:32;0.10;;;0.10;;
4186;SDS011;2107;52.306;10.484;2023-06-05T02:42:59;0.10;;;0.10;;
4186;SDS011;2107;52.306;10.484;2023-06-05T02:45:26;0.10;;;0.10;;
4186;SDS011;2107;52.306;10.484;2023-06-05T02:47:54;0.10;;;0.10;;
4186;SDS011;2107;52.306;10.484;2023-06-05T02:50:22;0.10;;;0.10;;
4186;SDS011;2107;52.306;10.484;2023-06-05T02:52:49;0.00;;;0.00;;
4186;SDS011;2107;52.306;10.484;2023-06-05T02:55:16;0.00;;;0.00;;
4186;SDS011;2107;52.306;10.484;2023-06-05T02:57:43;0.00;;;0.00;;
4186;SDS011;2107;52.306;10.484;2023-06-05T03:00:13;0.00;;;0.00;;
4186;SDS011;2107;52.306;10.484;2023-06-05T03:02:42;0.00;;;0.00;;
4186;SDS011;2107;52.306;10.484;2023-06-05T03:05:14;0.00;;;0.00;;
4186;SDS011;2107;52.306;10.484;2023-06-05T03:07:42;0.00;;;0.00;;
4186;SDS011;2107;52.306;10.484;2023-06-05T03:10:10;0.00;;;0.00;;
4186;SDS011;2107;52.306;10.484;2023-06-05T03:12:37;0.03;;;0.03;;
4186;SDS011;2107;52.306;10.484;2023-06-05T03:15:04;0.00;;;0.00;;
4186;SDS011;2107;52.306;10.484;2023-06-05T03:17:32;0.00;;;0.00;;
4186;SDS011;2107;52.306;10.484;2023-06-05T03:19:59;0.00;;;0.00;;
4186;SDS011;2107;52.306;10.484;2023-06-05T03:22:28;0.00;;;0.00;;
4186;SDS011;2107;52.306;10.484;2023-06-05T03:24:55;0.00;;;0.00;;
4186;SDS011;2107;52.306;10.484;2023-06-05T03:27:22;0.00;;;0.00;;
4186;SDS011;2107;52.306;10.484;2023-06-05T03:29:49;0.00;;;0.00;;
4186;SDS011;2107;52.306;10.484;2023-06-05T03:32:16;0.00;;;0.00;;
4186;SDS011;2107;52.306;10.484;2023-06-05T03:34:43;0.00;;;0.00;;
4186;SDS011;2107;52.306;10.484;2023-06-05T03:37:13;0.00;;;0.00;;
4186;SDS011;2107;52.306;10.484;2023-06-05T03:39:42;0.00;;;0.00;;
4186;SDS011;2107;52.306;10.484;2023-06-05T03:42:08;0.00;;;0.00;;
4186;SDS011;2107;52.306;10.484;2023-06-05T03:44:36;0.00;;;0.00;;
4186;SDS011;2107;52.306;10.484;2023-06-05T03:47:03;0.00;;;0.00;;
4186;SDS011;2107;52.306;10.484;2023-06-05T03:49:31;0.00;;;0.00;;
4186;SDS011;2107;52.306;10.484;2023-06-05T03:51:58;0.00;;;0.00;;
4186;SDS011;2107;52.306;10.484;2023-06-05T03:54:27;0.00;;;0.00;;
4186;SDS011;2107;52.306;10.484;2023-06-05T03:56:59;0.00;;;0.00;;
4186;SDS011;2107;52.306;10.484;2023-06-05T03:59:27;0.20;;;0.20;;
4186;SDS011;2107;52.306;10.484;2023-06-05T04:01:54;0.17;;;0.17;;
4186;SDS011;2107;52.306;10.484;2023-06-05T04:04:21;0.30;;;0.30;;
4186;SDS011;2107;52.306;10.484;2023-06-05T04:06:48;0.30;;;0.30;;
4186;SDS011;2107;52.306;10.484;2023-06-05T04:09:17;0.40;;;0.40;;
4186;SDS011;2107;52.306;10.484;2023-06-05T04:11:43;0.30;;;0.30;;
4186;SDS011;2107;52.306;10.484;2023-06-05T04:14:12;0.70;;;0.70;;
4186;SDS011;2107;52.306;10.484;2023-06-05T04:16:39;0.63;;;0.63;;
4186;SDS011;2107;52.306;10.484;2023-06-05T04:19:08;0.70;;;0.70;;
4186;SDS011;2107;52.306;10.484;2023-06-05T04:21:35;0.70;;;0.70;;
4186;SDS011;2107;52.306;10.484;2023-06-05T04:24:03;0.30;;;0.30;;
4186;SDS011;2107;52.306;10.484;2023-06-05T04:26:32;0.50;;;0.50;;
4186;SDS011;2107;52.306;10.484;2023-06-05T04:28:59;0.60;;;0.60;;
4186;SDS011;2107;52.306;10.484;2023-06-05T04:31:29;0.37;;;0.37;;
4186;SDS011;2107;52.306;10.484;2023-06-05T04:33:57;0.40;;;0.40;;
4186;SDS011;2107;52.306;10.484;2023-06-05T04:36:27;0.40;;;0.40;;
4186;SDS011;2107;52.306;10.484;2023-06-05T04:38:54;0.60;;;0.60;;
4186;SDS011;2107;52.306;10.484;2023-06-05T04:41:22;0.57;;;0.57;;
4186;SDS011;2107;52.306;10.484;2023-06-05T04:43:49;0.70;;;0.70;;
4186;SDS011;2107;52.306;10.484;2023-06-05T04:46:15;0.60;;;0.60;;
4186;SDS011;2107;52.306;10.484;2023-06-05T04:48:44;0.60;;;0.60;;
4186;SDS011;2107;52.306;10.484;2023-06-05T04:51:11;0.60;;;0.60;;
4186;SDS011;2107;52.306;10.484;2023-06-05T04:53:38;0.70;;;0.70;;
4186;SDS011;2107;52.306;10.484;2023-06-05T04:56:07;0.80;;;0.80;;
4186;SDS011;2107;52.306;10.484;2023-06-05T04:58:34;0.80;;;0.80;;
4186;SDS011;2107;52.306;10.484;2023-06-05T05:01:02;1.00;;;1.00;;
4186;SDS011;2107;52.306;10.484;2023-06-05T05:03:32;1.00;;;1.00;;
4186;SDS011;2107;52.306;10.484;2023-06-05T05:06:02;1.00;;;1.00;;
4186;SDS011;2107;52.306;10.484;2023-06-05T05:08:29;0.80;;;0.80;;
4186;SDS011;2107;52.306;10.484;2023-06-05T05:10:56;0.73;;;0.73;;
4186;SDS011;2107;52.306;10.484;2023-06-05T05:13:23;0.80;;;0.80;;
4186;SDS011;2107;52.306;10.484;2023-06-05T05:15:50;0.80;;;0.80;;
4186;SDS011;2107;52.306;10.484;2023-06-05T05:18:18;0.80;;;0.80;;
4186;SDS011;2107;52.306;10.484;2023-06-05T05:20:45;0.90;;;0.90;;
4186;SDS011;2107;52.306;10.484;2023-06-05T05:23:14;0.80;;;0.80;;
4186;SDS011;2107;52.306;10.484;2023-06-05T05:25:41;0.90;;;0.90;;
4186;SDS011;2107;52.306;10.484;2023-06-05T05:28:08;0.90;;;0.90;;
4186;SDS011;2107;52.306;10.484;2023-06-05T05:30:35;0.80;;;0.80;;
4186;SDS011;2107;52.306;10.484;2023-06-05T05:33:02;0.80;;;0.80;;
4186;SDS011;2107;52.306;10.484;2023-06-05T05:35:29;0.63;;;0.63;;
4186;SDS011;2107;52.306;10.484;2023-06-05T05:37:56;0.80;;;0.80;;
4186;SDS011;2107;52.306;10.484;2023-06-05T05:40:24;0.80;;;0.80;;
4186;SDS011;2107;52.306;10.484;2023-06-05T05:42:51;0.80;;;0.80;;
4186;SDS011;2107;52.306;10.484;2023-06-05T05:45:18;0.90;;;0.90;;
4186;SDS011;2107;52.306;10.484;2023-06-05T05:47:45;0.90;;;0.90;;
4186;SDS011;2107;52.306;10.484;2023-06-05T05:50:12;0.70;;;0.70;;
4186;SDS011;2107;52.306;10.484;2023-06-05T05:52:39;0.90;;;0.90;;
4186;SDS011;2107;52.306;10.484;2023-06-05T05:55:08;0.70;;;0.70;;
4186;SDS011;2107;52.306;10.484;2023-06-05T05:57:36;1.10;;;1.10;;
4186;SDS011;2107;52.306;10.484;2023-06-05T06:00:04;1.10;;;1.10;;
4186;SDS011;2107;52.306;10.484;2023-06-05T06:02:34;0.90;;;0.90;;
4186;SDS011;2107;52.306;10.484;2023-06-05T06:05:02;1.20;;;1.20;;
4186;SDS011;2107;52.306;10.484;2023-06-05T06:07:29;1.10;;;1.10;;
4186;SDS011;2107;52.306;10.484;2023-06-05T06:09:56;0.90;;;0.90;;
4186;SDS011;2107;52.306;10.484;2023-06-05T06:12:24;0.70;;;0.70;;
4186;SDS011;2107;52.306;10.484;2023-06-05T06:14:54;1.10;;;1.10;;
4186;SDS011;2107;52.306;10.484;2023-06-05T06:17:21;1.20;;;1.20;;
4186;SDS011;2107;52.306;10.484;2023-06-05T06:19:49;0.90;;;0.90;;
4186;SDS011;2107;52.306;10.484;2023-06-05T06:22:16;0.90;;;0.90;;
4186;SDS011;2107;52.306;10.484;2023-06-05T06:24:43;0.90;;;0.90;;
4186;SDS011;2107;52.306;10.484;2023-06-05T06:27:10;1.00;;;1.00;;
4186;SDS011;2107;52.306;10.484;2023-06-05T06:29:46;0.90;;;0.90;;
4186;SDS011;2107;52.306;10.484;2023-06-05T06:32:16;0.83;;;0.83;;
4186;SDS011;2107;52.306;10.484;2023-06-05T06:34:43;1.20;;;1.20;;
4186;SDS011;2107;52.306;10.484;2023-06-05T06:37:12;0.97;;;0.97;;
4186;SDS011;2107;52.306;10.484;2023-06-05T06:39:40;0.90;;;0.90;;
4186;SDS011;2107;52.306;10.484;2023-06-05T06:42:10;1.10;;;1.10;;
4186;SDS011;2107;52.306;10.484;2023-06-05T06:44:37;1.10;;;1.10;;
4186;SDS011;2107;52.306;10.484;2023-06-05T06:47:04;1.10;;;1.10;;
4186;SDS011;2107;52.306;10.484;2023-06-05T06:49:33;1.00;;;1.00;;
4186;SDS011;2107;52.306;10.484;2023-06-05T06:52:00;1.20;;;1.20;;
4186;SDS011;2107;52.306;10.484;2023-06-05T06:54:27;1.10;;;1.10;;
4186;SDS011;2107;52.306;10.484;2023-06-05T06:56:56;0.90;;;0.90;;
4186;SDS011;2107;52.306;10.484;2023-06-05T06:59:23;0.90;;;0.90;;
4186;SDS011;2107;52.306;10.484;2023-06-05T07:04:37;1.00;;;1.00;;
4186;SDS011;2107;52.306;10.484;2023-06-05T07:07:07;0.90;;;0.90;;
4186;SDS011;2107;52.306;10.484;2023-06-05T07:09:34;1.00;;;1.00;;
4186;SDS011;2107;52.306;10.484;2023-06-05T07:12:01;0.80;;;0.80;;
4186;SDS011;2107;52.306;10.484;2023-06-05T07:14:30;0.90;;;0.90;;
4186;SDS011;2107;52.306;10.484;2023-06-05T07:16:58;0.90;;;0.90;;
4186;SDS011;2107;52.306;10.484;2023-06-05T07:19:25;0.90;;;0.90;;
4186;SDS011;2107;52.306;10.484;2023-06-05T07:21:54;0.80;;;0.80;;
4186;SDS011;2107;52.306;10.484;2023-06-05T07:24:22;1.00;;;1.00;;
4186;SDS011;2107;52.306;10.484;2023-06-05T07:26:50;1.00;;;1.00;;
4186;SDS011;2107;52.306;10.484;2023-06-05T07:29:18;1.10;;;1.10;;
4186;SDS011;2107;52.306;10.484;2023-06-05T07:31:46;1.40;;;1.40;;
4186;SDS011;2107;52.306;10.484;2023-06-05T07:34:13;1.53;;;1.53;;
4186;SDS011;2107;52.306;10.484;2023-06-05T07:36:40;1.20;;;1.20;;
4186;SDS011;2107;52.306;10.484;2023-06-05T07:39:08;1.00;;;1.00;;
4186;SDS011;2107;52.306;10.484;2023-06-05T07:41:36;1.10;;;1.10;;
4186;SDS011;2107;52.306;10.484;2023-06-05T07:44:04;1.10;;;1.10;;
4186;SDS011;2107;52.306;10.484;2023-06-05T07:46:31;1.07;;;1.07;;
4186;SDS011;2107;52.306;10.484;2023-06-05T07:48:58;1.20;;;1.20;;
4186;SDS011;2107;52.306;10.484;2023-06-05T07:51:25;1.20;;;1.20;;
4186;SDS011;2107;52.306;10.484;2023-06-05T07:53:52;1.50;;;1.50;;
4186;SDS011;2107;52.306;10.484;2023-06-05T07:56:20;1.50;;;1.50;;
4186;SDS011;2107;52.306;10.484;2023-06-05T07:58:50;1.43;;;1.43;;
4186;SDS011;2107;52.306;10.484;2023-06-05T08:01:17;1.40;;;1.40;;
4186;SDS011;2107;52.306;10.484;2023-06-05T08:03:45;1.20;;;1.20;;
4186;SDS011;2107;52.306;10.484;2023-06-05T08:06:12;1.20;;;1.20;;
4186;SDS011;2107;52.306;10.484;2023-06-05T08:08:40;0.97;;;0.97;;
4186;SDS011;2107;52.306;10.484;2023-06-05T08:11:07;1.00;;;1.00;;
4186;SDS011;2107;52.306;10.484;2023-06-05T08:13:36;0.90;;;0.90;;
4186;SDS011;2107;52.306;10.484;2023-06-05T08:16:03;1.00;;;1.00;;
4186;SDS011;2107;52.306;10.484;2023-06-05T08:18:30;1.20;;;1.20;;
4186;SDS011;2107;52.306;10.484;2023-06-05T08:20:57;1.20;;;1.20;;
4186;SDS011;2107;52.306;10.484;2023-06-05T08:23:24;1.10;;;1.10;;
4186;SDS011;2107;52.306;10.484;2023-06-05T08:25:51;1.20;;;1.20;;
4186;SDS011;2107;52.306;10.484;2023-06-05T08:28:20;0.93;;;0.93;;
4186;SDS011;2107;52.306;10.484;2023-06-05T08:30:48;0.90;;;0.90;;
4186;SDS011;2107;52.306;10.484;2023-06-05T08:33:17;0.80;;;0.80;;
4186;SDS011;2107;52.306;10.484;2023-06-05T08:35:44;1.20;;;1.20;;
4186;SDS011;2107;52.306;10.484;2023-06-05T08:38:11;1.30;;;1.30;;
4186;SDS011;2107;52.306;10.484;2023-06-05T08:40:37;1.10;;;1.10;;
4186;SDS011;2107;52.306;10.484;2023-06-05T08:43:05;1.50;;;1.50;;
4186;SDS011;2107;52.306;10.484;2023-06-05T08:45:32;0.90;;;0.90;;
4186;SDS011;2107;52.306;10.484;2023-06-05T08:48:00;0.90;;;0.90;;
4186;SDS011;2107;52.306;10.484;2023-06-05T08:50:28;0.83;;;0.83;;
4186;SDS011;2107;52.306;10.484;2023-06-05T08:52:56;0.90;;;0.90;;
4186;SDS011;2107;52.306;10.484;2023-06-05T08:55:25;1.20;;;1.20;;
4186;SDS011;2107;52.306;10.484;2023-06-05T08:57:52;1.23;;;1.23;;
4186;SDS011;2107;52.306;10.484;2023-06-05T09:00:20;1.20;;;1.20;;
4186;SDS011;2107;52.306;10.484;2023-06-05T09:02:48;0.90;;;0.90;;
4186;SDS011;2107;52.306;10.484;2023-06-05T09:05:16;1.30;;;1.30;;
4186;SDS011;2107;52.306;10.484;2023-06-05T09:07:43;0.80;;;0.80;;
4186;SDS011;2107;52.306;10.484;2023-06-05T09:10:23;1.00;;;1.00;;
4186;SDS011;2107;52.306;10.484;2023-06-05T09:12:57;1.10;;;1.10;;
4186;SDS011;2107;52.306;10.484;2023-06-05T09:15:25;1.00;;;1.00;;
4186;SDS011;2107;52.306;10.484;2023-06-05T09:18:07;1.00;;;1.00;;
4186;SDS011;2107;52.306;10.484;2023-06-05T09:20:36;0.90;;;0.90;;
4186;SDS011;2107;52.306;10.484;2023-06-05T09:23:05;0.90;;;0.90;;
4186;SDS011;2107;52.306;10.484;2023-06-05T09:25:49;0.70;;;0.70;;
4186;SDS011;2107;52.306;10.484;2023-06-05T09:28:16;0.90;;;0.90;;
4186;SDS011;2107;52.306;10.484;2023-06-05T09:30:53;0.60;;;0.60;;
4186;SDS011;2107;52.306;10.484;2023-06-05T09:33:21;0.90;;;0.90;;
4186;SDS011;2107;52.306;10.484;2023-06-05T09:36:02;1.00;;;1.00;;
4186;SDS011;2107;52.306;10.484;2023-06-05T09:38:31;0.93;;;0.93;;
4186;SDS011;2107;52.306;10.484;2023-06-05T09:41:02;0.77;;;0.77;;
4186;SDS011;2107;52.306;10.484;2023-06-05T09:43:30;1.13;;;1.13;;
4186;SDS011;2107;52.306;10.484;2023-06-05T09:45:56;1.20;;;1.20;;
4186;SDS011;2107;52.306;10.484;2023-06-05T09:48:23;1.00;;;1.00;;
4186;SDS011;2107;52.306;10.484;2023-06-05T09:50:52;0.90;;;0.90;;
4186;SDS011;2107;52.306;10.484;2023-06-05T09:53:20;0.70;;;0.70;;
4186;SDS011;2107;52.306;10.484;2023-06-05T09:55:48;1.00;;;1.00;;
4186;SDS011;2107;52.306;10.484;2023-06-05T09:58:15;1.17;;;1.17;;
4186;SDS011;2107;52.306;10.484;2023-06-05T10:00:45;1.00;;;1.00;;
4186;SDS011;2107;52.306;10.484;2023-06-05T10:03:13;1.10;;;1.10;;
4186;SDS011;2107;52.306;10.484;2023-06-05T10:05:43;0.83;;;0.83;;
4186;SDS011;2107;52.306;10.484;2023-06-05T10:08:11;1.10;;;1.10;;
4186;SDS011;2107;52.306;10.484;2023-06-05T10:10:40;0.90;;;0.90;;
4186;SDS011;2107;52.306;10.484;2023-06-05T10:13:08;1.07;;;1.07;;
4186;SDS011;2107;52.306;10.484;2023-06-05T10:15:36;1.00;;;1.00;;
4186;SDS011;2107;52.306;10.484;2023-06-05T10:18:05;0.80;;;0.80;;
4186;SDS011;2107;52.306;10.484;2023-06-05T10:20:33;1.10;;;1.10;;
4186;SDS011;2107;52.306;10.484;2023-06-05T10:23:02;1.00;;;1.00;;
4186;SDS011;2107;52.306;10.484;2023-06-05T10:25:31;0.80;;;0.80;;
4186;SDS011;2107;52.306;10.484;2023-06-05T10:34:04;0.93;;;0.93;;
4186;SDS011;2107;52.306;10.484;2023-06-05T10:39:33;0.80;;;0.80;;
4186;SDS011;2107;52.306;10.484;2023-06-05T10:42:02;0.80;;;0.80;;
4186;SDS011;2107;52.306;10.484;2023-06-05T10:44:39;0.70;;;0.70;;
4186;SDS011;2107;52.306;10.484;2023-06-05T10:50:28;1.00;;;1.00;;
4186;SDS011;2107;52.306;10.484;2023-06-05T10:52:56;1.10;;;1.10;;
4186;SDS011;2107;52.306;10.484;2023-06-05T10:55:27;1.20;;;1.20;;
4186;SDS011;2107;52.306;10.484;2023-06-05T10:58:08;1.27;;;1.27;;
4186;SDS011;2107;52.306;10.484;2023-06-05T11:01:15;1.20;;;1.20;;
4186;SDS011;2107;52.306;10.484;2023-06-05T11:03:55;1.10;;;1.10;;
4186;SDS011;2107;52.306;10.484;2023-06-05T11:06:23;0.90;;;0.90;;
4186;SDS011;2107;52.306;10.484;2023-06-05T11:11:54;1.00;;;1.00;;
4186;SDS011;2107;52.306;10.484;2023-06-05T11:14:22;1.10;;;1.10;;
4186;SDS011;2107;52.306;10.484;2023-06-05T11:16:50;1.00;;;1.00;;
4186;SDS011;2107;52.306;10.484;2023-06-05T11:19:35;1.30;;;1.30;;
4186;SDS011;2107;52.306;10.484;2023-06-05T11:22:04;1.20;;;1.20;;
4186;SDS011;2107;52.306;10.484;2023-06-05T11:24:32;1.10;;;1.10;;
4186;SDS011;2107;52.306;10.484;2023-06-05T11:27:00;1.20;;;1.20;;
4186;SDS011;2107;52.306;10.484;2023-06-05T11:29:28;1.30;;;1.30;;
4186;SDS011;2107;52.306;10.484;2023-06-05T11:31:57;1.07;;;1.07;;
4186;SDS011;2107;52.306;10.484;2023-06-05T11:34:25;1.00;;;1.00;;
4186;SDS011;2107;52.306;10.484;2023-06-05T11:36:53;1.23;;;1.23;;
4186;SDS011;2107;52.306;10.484;2023-06-05T11:39:20;1.10;;;1.10;;
4186;SDS011;2107;52.306;10.484;2023-06-05T11:41:48;1.23;;;1.23;;
4186;SDS011;2107;52.306;10.484;2023-06-05T11:44:29;1.00;;;1.00;;
4186;SDS011;2107;52.306;10.484;2023-06-05T11:46:58;1.20;;;1.20;;
4186;SDS011;2107;52.306;10.484;2023-06-05T11:49:27;1.20;;;1.20;;
4186;SDS011;2107;52.306;10.484;2023-06-05T11:51:55;1.00;;;1.00;;
4186;SDS011;2107;52.306;10.484;2023-06-05T11:54:26;1.40;;;1.40;;
4186;SDS011;2107;52.306;10.484;2023-06-05T11:56:56;0.90;;;0.90;;
4186;SDS011;2107;52.306;10.484;2023-06-05T11:59:24;1.50;;;1.50;;
4186;SDS011;2107;52.306;10.484;2023-06-05T12:01:51;1.20;;;1.20;;
4186;SDS011;2107;52.306;10.484;2023-06-05T12:04:20;1.20;;;1.20;;
4186;SDS011;2107;52.306;10.484;2023-06-05T12:06:48;1.10;;;1.10;;
4186;SDS011;2107;52.306;10.484;2023-06-05T12:09:16;1.00;;;1.00;;
4186;SDS011;2107;52.306;10.484;2023-06-05T12:11:44;1.00;;;1.00;;
4186;SDS011;2107;52.306;10.484;2023-06-05T12:14:11;1.40;;;1.40;;
4186;SDS011;2107;52.306;10.484;2023-06-05T12:16:40;1.00;;;1.00;;
4186;SDS011;2107;52.306;10.484;2023-06-05T12:19:12;1.30;;;1.30;;
4186;SDS011;2107;52.306;10.484;2023-06-05T12:21:41;1.10;;;1.10;;
4186;SDS011;2107;52.306;10.484;2023-06-05T12:24:08;1.13;;;1.13;;
4186;SDS011;2107;52.306;10.484;2023-06-05T12:26:49;1.10;;;1.10;;
4186;SDS011;2107;52.306;10.484;2023-06-05T12:29:20;1.10;;;1.10;;
4186;SDS011;2107;52.306;10.484;2023-06-05T12:31:48;1.30;;;1.30;;
4186;SDS011;2107;52.306;10.484;2023-06-05T12:34:15;1.30;;;1.30;;
4186;SDS011;2107;52.306;10.484;2023-06-05T12:36:44;1.40;;;1.40;;
4186;SDS011;2107;52.306;10.484;2023-06-05T12:39:12;1.10;;;1.10;;
4186;SDS011;2107;52.306;10.484;2023-06-05T12:41:41;1.50;;;1.50;;
4186;SDS011;2107;52.306;10.484;2023-06-05T12:44:09;1.30;;;1.30;;
4186;SDS011;2107;52.306;10.484;2023-06-05T12:46:36;1.20;;;1.20;;
4186;SDS011;2107;52.306;10.484;2023-06-05T12:49:04;1.40;;;1.40;;
4186;SDS011;2107;52.306;10.484;2023-06-05T12:51:31;1.20;;;1.20;;
4186;SDS011;2107;52.306;10.484;2023-06-05T12:53:59;1.17;;;1.17;;
4186;SDS011;2107;52.306;10.484;2023-06-05T12:56:26;1.23;;;1.23;;
4186;SDS011;2107;52.306;10.484;2023-06-05T12:58:54;0.90;;;0.90;;
4186;SDS011;2107;52.306;10.484;2023-06-05T13:01:22;1.00;;;1.00;;
4186;SDS011;2107;52.306;10.484;2023-06-05T13:03:50;0.90;;;0.90;;
4186;SDS011;2107;52.306;10.484;2023-06-05T13:06:17;1.00;;;1.00;;
4186;SDS011;2107;52.306;10.484;2023-06-05T13:08:44;0.93;;;0.93;;
4186;SDS011;2107;52.306;10.484;2023-06-05T13:11:13;1.10;;;1.10;;
4186;SDS011;2107;52.306;10.484;2023-06-05T13:13:41;1.20;;;1.20;;
4186;SDS011;2107;52.306;10.484;2023-06-05T13:16:09;1.00;;;1.00;;
4186;SDS011;2107;52.306;10.484;2023-06-05T13:18:36;1.10;;;1.10;;
4186;SDS011;2107;52.306;10.484;2023-06-05T13:21:04;1.00;;;1.00;;
4186;SDS011;2107;52.306;10.484;2023-06-05T13:23:31;0.80;;;0.80;;
4186;SDS011;2107;52.306;10.484;2023-06-05T13:25:58;0.70;;;0.70;;
4186;SDS011;2107;52.306;10.484;2023-06-05T13:28:26;1.00;;;1.00;;
4186;SDS011;2107;52.306;10.484;2023-06-05T13:30:54;0.90;;;0.90;;
4186;SDS011;2107;52.306;10.484;2023-06-05T13:33:21;1.03;;;1.03;;
4186;SDS011;2107;52.306;10.484;2023-06-05T13:35:50;0.93;;;0.93;;
4186;SDS011;2107;52.306;10.484;2023-06-05T13:38:17;0.90;;;0.90;;
4186;SDS011;2107;52.306;10.484;2023-06-05T13:40:44;1.10;;;1.10;;
4186;SDS011;2107;52.306;10.484;2023-06-05T13:43:13;1.00;;;1.00;;
4186;SDS011;2107;52.306;10.484;2023-06-05T13:45:42;1.00;;;1.00;;
4186;SDS011;2107;52.306;10.484;2023-06-05T13:48:09;1.10;;;1.10;;
4186;SDS011;2107;52.306;10.484;2023-06-05T13:50:36;0.90;;;0.90;;
4186;SDS011;2107;52.306;10.484;2023-06-05T13:53:03;0.90;;;0.90;;
4186;SDS011;2107;52.306;10.484;2023-06-05T13:55:30;0.80;;;0.80;;
4186;SDS011;2107;52.306;10.484;2023-06-05T13:57:57;0.90;;;0.90;;
4186;SDS011;2107;52.306;10.484;2023-06-05T14:00:27;0.98;;;0.98;;
4186;SDS011;2107;52.306;10.484;2023-06-05T14:02:56;0.80;;;0.80;;
4186;SDS011;2107;52.306;10.484;2023-06-05T14:05:23;0.80;;;0.80;;
4186;SDS011;2107;52.306;10.484;2023-06-05T14:07:51;0.90;;;0.90;;
4186;SDS011;2107;52.306;10.484;2023-06-05T14:10:20;0.88;;;0.88;;
4186;SDS011;2107;52.306;10.484;2023-06-05T14:12:48;0.90;;;0.90;;
4186;SDS011;2107;52.306;10.484;2023-06-05T14:15:16;1.00;;;1.00;;
4186;SDS011;2107;52.306;10.484;2023-06-05T14:17:43;1.27;;;1.27;;
4186;SDS011;2107;52.306;10.484;2023-06-05T14:20:12;0.97;;;0.97;;
4186;SDS011;2107;52.306;10.484;2023-06-05T14:22:39;1.10;;;1.10;;
4186;SDS011;2107;52.306;10.484;2023-06-05T14:25:06;1.27;;;1.27;;
4186;SDS011;2107;52.306;10.484;2023-06-05T14:27:35;1.10;;;1.10;;
4186;SDS011;2107;52.306;10.484;2023-06-05T14:30:02;1.00;;;1.00;;
4186;SDS011;2107;52.306;10.484;2023-06-05T14:32:30;1.10;;;1.10;;
4186;SDS011;2107;52.306;10.484;2023-06-05T14:34:57;1.10;;;1.10;;
4186;SDS011;2107;52.306;10.484;2023-06-05T14:37:25;1.00;;;1.00;;
4186;SDS011;2107;52.306;10.484;2023-06-05T14:39:52;1.20;;;1.20;;
4186;SDS011;2107;52.306;10.484;2023-06-05T14:42:18;0.90;;;0.90;;
4186;SDS011;2107;52.306;10.484;2023-06-05T14:44:45;0.90;;;0.90;;
4186;SDS011;2107;52.306;10.484;2023-06-05T14:47:12;0.90;;;0.90;;
4186;SDS011;2107;52.306;10.484;2023-06-05T14:49:40;0.90;;;0.90;;
4186;SDS011;2107;52.306;10.484;2023-06-05T14:52:07;1.10;;;1.10;;
4186;SDS011;2107;52.306;10.484;2023-06-05T14:54:35;1.00;;;1.00;;
4186;SDS011;2107;52.306;10.484;2023-06-05T14:57:02;1.20;;;1.20;;
4186;SDS011;2107;52.306;10.484;2023-06-05T14:59:30;1.10;;;1.10;;
4186;SDS011;2107;52.306;10.484;2023-06-05T15:01:57;1.13;;;1.13;;
4186;SDS011;2107;52.306;10.484;2023-06-05T15:04:24;1.40;;;1.40;;
4186;SDS011;2107;52.306;10.484;2023-06-05T15:06:52;0.90;;;0.90;;
4186;SDS011;2107;52.306;10.484;2023-06-05T15:09:19;1.20;;;1.20;;
4186;SDS011;2107;52.306;10.484;2023-06-05T15:11:48;1.37;;;1.37;;
4186;SDS011;2107;52.306;10.484;2023-06-05T15:14:15;1.00;;;1.00;;
4186;SDS011;2107;52.306;10.484;2023-06-05T15:16:42;1.10;;;1.10;;
4186;SDS011;2107;52.306;10.484;2023-06-05T15:19:09;1.00;;;1.00;;
4186;SDS011;2107;52.306;10.484;2023-06-05T15:21:36;1.20;;;1.20;;
4186;SDS011;2107;52.306;10.484;2023-06-05T15:24:03;1.10;;;1.10;;
4186;SDS011;2107;52.306;10.484;2023-06-05T15:26:30;1.10;;;1.10;;